Date,TemperatureHighF,TemperatureAvgF,TemperatureLowF,DewpointHighF,DewpointAvgF,DewpointLowF,HumidityHigh,HumidityAvg,HumidityLow,PressureMaxIn,PressureMinIn,WindSpeedMaxMPH,WindSpeedAvgMPH,GustSpeedMaxMPH,PrecipitationSumIn
2013-11-1,62.3,48.9,41.4,45.6,40.5,37.4,88,74,49,30.00,29.66,15,6,15,0.00
2013-11-2,68.6,49.2,39.2,42.1,37.3,31.6,85,66,33,30.21,30.00,13,5,13,0.00
2013-11-3,59.2,48.8,37.1,39.8,35.2,30.3,79,61,43,30.19,29.93,22,7,22,0.05
2013-11-4,58.9,54.2,47.9,48.8,45.7,39.8,85,73,60,30.15,29.94,15,4,15,0.01
2013-11-5,59.6,55.1,44.3,56.3,51.6,41.4,91,88,78,30.15,29.88,20,5,20,0.00
2013-11-6,52.4,41.5,35.6,41.4,35.3,30.3,92,79,55,30.34,29.95,19,6,19,0.00
2013-11-7,63.7,42.9,31.3,39.3,29.7,24.0,89,64,25,30.41,30.32,17,3,17,0.02
2013-11-8,67.0,49.7,31.0,37.9,32.1,24.4,78,53,29,30.35,29.89,30,8,30,0.00
2013-11-9,80.1,56.2,41.0,40.6,34.7,31.1,73,48,21,30.35,29.99,16,3,16,0.00
2013-11-10,59.6,48.4,36.5,35.0,31.1,27.8,71,52,35,30.45,30.23,9,2,10,0.00
2013-11-11,55.1,42.9,25.2,48.5,33.0,15.8,82,68,57,30.70,30.18,19,6,19,0.00
2013-11-12,50.8,29.4,17.3,20.2,13.6,10.3,75,55,25,30.89,30.67,12,2,12,0.00
2013-11-13,54.0,36.3,21.2,22.2,15.5,11.3,69,46,20,30.68,30.18,18,6,18,0.00
2013-11-14,58.9,45.9,38.2,30.3,26.2,21.6,57,47,32,30.18,29.98,20,8,20,0.00
2013-11-15,61.2,50.3,41.4,43.5,36.0,28.2,82,59,41,30.00,29.77,15,5,15,0.00
2013-11-16,71.8,60.8,48.8,58.2,53.8,43.5,89,79,60,29.78,29.46,29,9,29,0.01
2013-11-17,66.1,58.6,43.4,59.7,43.1,29.4,83,59,28,30.10,29.35,29,10,29,0.00
2013-11-18,67.7,46.5,35.3,37.4,31.9,27.0,84,60,26,30.32,30.10,11,3,11,0.00
2013-11-19,61.7,47.8,35.6,31.8,27.4,24.4,70,48,25,30.29,30.02,18,6,18,0.00
2013-11-20,50.8,43.7,39.2,38.0,33.1,20.7,85,69,33,30.05,29.91,20,7,20,0.01
2013-11-21,45.7,38.5,28.3,40.9,34.8,24.6,90,87,82,30.47,30.00,12,2,12,0.01
2013-11-22,34.2,27.6,23.4,26.5,22.4,18.2,86,81,71,30.65,30.46,0,0,0,0.00
2013-11-23,33.5,24.0,15.7,18.5,12.4,6.4,81,62,41,30.81,30.61,15,4,15,0.00
2013-11-24,31.1,21.8,12.6,14.6,10.1,6.0,77,61,42,30.77,30.33,10,3,10,0.00
2013-11-25,45.0,33.1,27.0,28.0,20.6,14.0,78,60,47,30.34,30.18,13,4,13,0.00
2013-11-26,41.6,30.6,19.6,27.4,19.5,9.1,83,65,39,30.42,30.18,19,6,19,0.00
2013-11-27,38.2,26.8,15.1,17.7,11.9,7.8,74,55,35,30.46,30.16,15,4,15,0.00
2013-11-28,51.1,33.7,23.4,24.9,18.3,13.2,75,55,33,30.52,30.15,10,4,14,0.00
2013-11-29,52.4,35.2,22.7,30.1,22.6,13.3,77,61,41,30.52,30.26,15,4,15,0.00
2013-11-30,59.9,42.0,32.2,37.4,29.2,23.7,75,61,42,30.26,30.10,10,2,10,0.00